sensor_id;sensor_type;location;lat;lon;timestamp;pressure;altitude;pressure_sealevel;temperature;humidity
61757;BME280;57225;61.460;24.060;2023-04-08T00:01:24;101561.69;;;1.14;100.00
61757;BME280;57225;61.460;24.060;2023-04-08T00:04:09;101560.97;;;1.09;100.00
61757;BME280;57225;61.460;24.060;2023-04-08T00:06:53;101549.50;;;1.07;100.00
61757;BME280;57225;61.460;24.060;2023-04-08T00:09:38;101554.06;;;1.11;100.00
61757;BME280;57225;61.460;24.060;2023-04-08T00:12:22;101553.53;;;1.09;100.00
61757;BME280;57225;61.460;24.060;2023-04-08T00:15:07;101561.28;;;1.07;100.00
61757;BME280;57225;61.460;24.060;2023-04-08T00:17:51;101560.66;;;1.10;100.00
61757;BME280;57225;61.460;24.060;2023-04-08T00:20:37;101563.50;;;1.05;100.00
61757;BME280;57225;61.460;24.060;2023-04-08T00:23:21;101559.13;;;1.04;100.00
61757;BME280;57225;61.460;24.060;2023-04-08T00:26:06;101554.75;;;1.03;100.00
61757;BME280;57225;61.460;24.060;2023-04-08T00:28:50;101559.66;;;1.06;100.00
61757;BME280;57225;61.460;24.060;2023-04-08T00:31:35;101555.81;;;1.07;100.00
61757;BME280;57225;61.460;24.060;2023-04-08T00:34:19;101550.31;;;1.07;100.00
61757;BME280;57225;61.460;24.060;2023-04-08T00:37:04;101554.97;;;1.07;100.00
61757;BME280;57225;61.460;24.060;2023-04-08T00:39:48;101554.06;;;1.11;100.00
61757;BME280;57225;61.460;24.060;2023-04-08T00:42:33;101554.06;;;1.11;100.00
61757;BME280;57225;61.460;24.060;2023-04-08T00:45:18;101550.91;;;1.18;100.00
61757;BME280;57225;61.460;24.060;2023-04-08T00:48:03;101539.53;;;1.11;100.00
61757;BME280;57225;61.460;24.060;2023-04-08T00:50:49;101552.31;;;1.15;100.00
61757;BME280;57225;61.460;24.060;2023-04-08T00:53:34;101549.06;;;1.27;100.00
61757;BME280;57225;61.460;24.060;2023-04-08T00:56:21;101551.72;;;1.32;100.00
61757;BME280;57225;61.460;24.060;2023-04-08T00:59:05;101536.25;;;1.23;100.00
61757;BME280;57225;61.460;24.060;2023-04-08T01:02:06;101551.31;;;1.39;100.00
61757;BME280;57225;61.460;24.060;2023-04-08T01:05:04;101550.47;;;1.52;100.00
61757;BME280;57225;61.460;24.060;2023-04-08T01:07:49;101553.22;;;1.52;100.00
61757;BME280;57225;61.460;24.060;2023-04-08T01:10:36;101544.97;;;1.52;100.00
61757;BME280;57225;61.460;24.060;2023-04-08T01:13:22;101553.22;;;1.52;100.00
61757;BME280;57225;61.460;24.060;2023-04-08T01:16:12;101563.91;;;1.53;100.00
61757;BME280;57225;61.460;24.060;2023-04-08T01:18:57;101560.84;;;1.55;100.00
61757;BME280;57225;61.460;24.060;2023-04-08T01:21:42;101554.13;;;1.61;100.00
61757;BME280;57225;61.460;24.060;2023-04-08T01:24:30;101560.75;;;1.46;100.00
61757;BME280;57225;61.460;24.060;2023-04-08T01:27:27;101559.88;;;1.37;100.00
61757;BME280;57225;61.460;24.060;2023-04-08T01:30:16;101563.91;;;1.40;100.00
61757;BME280;57225;61.460;24.060;2023-04-08T01:33:03;101561.28;;;1.35;100.00
61757;BME280;57225;61.460;24.060;2023-04-08T01:35:50;101554.56;;;1.27;100.00
61757;BME280;57225;61.460;24.060;2023-04-08T01:38:35;101553.53;;;1.09;100.00
61757;BME280;57225;61.460;24.060;2023-04-08T01:41:20;101559.44;;;1.03;100.00
61757;BME280;57225;61.460;24.060;2023-04-08T01:44:04;101565.16;;;1.06;100.00
61757;BME280;57225;61.460;24.060;2023-04-08T01:46:49;101565.75;;;1.03;100.00
61757;BME280;57225;61.460;24.060;2023-04-08T01:49:36;101561.47;;;0.97;100.00
61757;BME280;57225;61.460;24.060;2023-04-08T01:52:22;101556.66;;;0.89;100.00
61757;BME280;57225;61.460;24.060;2023-04-08T01:55:07;101564.91;;;0.89;100.00
61757;BME280;57225;61.460;24.060;2023-04-08T01:57:52;101564.91;;;0.89;100.00
61757;BME280;57225;61.460;24.060;2023-04-08T02:00:39;101555.66;;;0.85;100.00
61757;BME280;57225;61.460;24.060;2023-04-08T02:03:26;101566.03;;;0.88;100.00
61757;BME280;57225;61.460;24.060;2023-04-08T02:06:12;101560.31;;;0.71;100.00
61757;BME280;57225;61.460;24.060;2023-04-08T02:08:58;101567.72;;;0.70;100.00
61757;BME280;57225;61.460;24.060;2023-04-08T02:11:42;101563.75;;;0.63;100.00
61757;BME280;57225;61.460;24.060;2023-04-08T02:14:27;101572.13;;;0.53;100.00
61757;BME280;57225;61.460;24.060;2023-04-08T02:17:32;101562.81;;;0.54;100.00
61757;BME280;57225;61.460;24.060;2023-04-08T02:20:21;101571.28;;;0.38;100.00
61757;BME280;57225;61.460;24.060;2023-04-08T02:23:14;101566.31;;;0.40;100.00
61757;BME280;57225;61.460;24.060;2023-04-08T02:25:59;101565.44;;;0.26;100.00
61757;BME280;57225;61.460;24.060;2023-04-08T02:28:47;101568.41;;;0.30;100.00
61757;BME280;57225;61.460;24.060;2023-04-08T02:31:33;101564.13;;;0.24;100.00
61757;BME280;57225;61.460;24.060;2023-04-08T02:34:18;101569.00;;;0.27;100.00
61757;BME280;57225;61.460;24.060;2023-04-08T02:37:06;101571.44;;;0.28;100.00
61757;BME280;57225;61.460;24.060;2023-04-08T02:39:50;101567.75;;;0.19;100.00
61757;BME280;57225;61.460;24.060;2023-04-08T02:42:35;101564.88;;;0.11;100.00
61757;BME280;57225;61.460;24.060;2023-04-08T02:45:19;101561.41;;;0.05;100.00
61757;BME280;57225;61.460;24.060;2023-04-08T02:48:04;101564.63;;;0.07;100.00
61757;BME280;57225;61.460;24.060;2023-04-08T02:50:49;101562.13;;;0.11;100.00
61757;BME280;57225;61.460;24.060;2023-04-08T02:53:33;101565.25;;;0.04;100.00
61757;BME280;57225;61.460;24.060;2023-04-08T02:56:18;101575.03;;;-0.09;100.00
61757;BME280;57225;61.460;24.060;2023-04-08T02:59:02;101559.97;;;-0.11;100.00
61757;BME280;57225;61.460;24.060;2023-04-08T03:01:47;101567.09;;;-0.10;100.00
61757;BME280;57225;61.460;24.060;2023-04-08T03:04:31;101568.22;;;-0.11;100.00
61757;BME280;57225;61.460;24.060;2023-04-08T03:07:16;101568.81;;;-0.14;100.00
61757;BME280;57225;61.460;24.060;2023-04-08T03:10:00;101570.84;;;-0.25;100.00
61757;BME280;57225;61.460;24.060;2023-04-08T03:12:45;101571.38;;;-0.23;100.00
61757;BME280;57225;61.460;24.060;2023-04-08T03:15:30;101568.53;;;-0.13;100.00
61757;BME280;57225;61.460;24.060;2023-04-08T03:18:14;101572.19;;;-0.22;100.00
61757;BME280;57225;61.460;24.060;2023-04-08T03:20:59;101572.41;;;-0.19;100.00
61757;BME280;57225;61.460;24.060;2023-04-08T03:23:45;101568.38;;;-0.21;100.00
61757;BME280;57225;61.460;24.060;2023-04-08T03:26:30;101561.47;;;-0.19;100.00
61757;BME280;57225;61.460;24.060;2023-04-08T03:29:15;101561.78;;;-0.20;100.00
61757;BME280;57225;61.460;24.060;2023-04-08T03:31:59;101551.84;;;-0.35;100.00
61757;BME280;57225;61.460;24.060;2023-04-08T03:34:44;101568.81;;;-0.14;100.00
61757;BME280;57225;61.460;24.060;2023-04-08T03:37:29;101572.13;;;-0.17;100.00
61757;BME280;57225;61.460;24.060;2023-04-08T03:40:13;101579.31;;;-0.21;100.00
61757;BME280;57225;61.460;24.060;2023-04-08T03:42:58;101573.47;;;-0.15;100.00
61757;BME280;57225;61.460;24.060;2023-04-08T03:45:42;101575.47;;;-0.20;100.00
61757;BME280;57225;61.460;24.060;2023-04-08T03:48:27;101565.47;;;-0.30;100.00
61757;BME280;57225;61.460;24.060;2023-04-08T03:51:11;101576.22;;;-0.15;100.00
61757;BME280;57225;61.460;24.060;2023-04-08T03:53:56;101575.47;;;-0.20;100.00
61757;BME280;57225;61.460;24.060;2023-04-08T03:56:40;101570.94;;;-0.11;100.00
61757;BME280;57225;61.460;24.060;2023-04-08T03:59:25;101565.84;;;0.01;100.00
61757;BME280;57225;61.460;24.060;2023-04-08T04:02:09;101569.31;;;-0.12;100.00
61757;BME280;57225;61.460;24.060;2023-04-08T04:04:54;101568.72;;;-0.09;100.00
61757;BME280;57225;61.460;24.060;2023-04-08T04:07:38;101565.63;;;-0.03;100.00
61757;BME280;57225;61.460;24.060;2023-04-08T04:10:23;101567.38;;;0.07;100.00
61757;BME280;57225;61.460;24.060;2023-04-08T04:13:07;101542.97;;;-0.08;100.00
61757;BME280;57225;61.460;24.060;2023-04-08T04:15:52;101552.66;;;0.03;100.00
61757;BME280;57225;61.460;24.060;2023-04-08T04:18:36;101563.63;;;0.03;100.00
61757;BME280;57225;61.460;24.060;2023-04-08T04:21:21;101557.03;;;0.04;100.00
61757;BME280;57225;61.460;24.060;2023-04-08T04:24:05;101560.41;;;0.15;100.00
61757;BME280;57225;61.460;24.060;2023-04-08T04:26:50;101566.72;;;0.15;100.00
61757;BME280;57225;61.460;24.060;2023-04-08T04:29:34;101568.34;;;0.16;100.00
61757;BME280;57225;61.460;24.060;2023-04-08T04:32:19;101566.72;;;0.15;100.00
61757;BME280;57225;61.460;24.060;2023-04-08T04:35:03;101564.72;;;0.21;100.00
61757;BME280;57225;61.460;24.060;2023-04-08T04:37:47;101560.03;;;0.21;100.00
61757;BME280;57225;61.460;24.060;2023-04-08T04:40:33;101567.41;;;0.39;100.00
61757;BME280;57225;61.460;24.060;2023-04-08T04:43:17;101563.44;;;0.64;100.00
61757;BME280;57225;61.460;24.060;2023-04-08T04:46:02;101560.50;;;0.61;100.00
61757;BME280;57225;61.460;24.060;2023-04-08T04:48:50;101562.22;;;0.57;100.00
61757;BME280;57225;61.460;24.060;2023-04-08T04:51:34;101565.53;;;0.86;100.00
61757;BME280;57225;61.460;24.060;2023-04-08T04:54:19;101555.66;;;1.40;100.00
61757;BME280;57225;61.460;24.060;2023-04-08T04:57:03;101554.81;;;1.80;97.40
61757;BME280;57225;61.460;24.060;2023-04-08T04:59:47;101557.88;;;2.15;95.21
61757;BME280;57225;61.460;24.060;2023-04-08T05:02:32;101562.22;;;2.16;94.24
61757;BME280;57225;61.460;24.060;2023-04-08T05:05:16;101564.97;;;2.60;91.44
61757;BME280;57225;61.460;24.060;2023-04-08T05:08:00;101572.56;;;2.55;91.15
61757;BME280;57225;61.460;24.060;2023-04-08T05:10:45;101572.13;;;2.61;90.38
61757;BME280;57225;61.460;24.060;2023-04-08T05:13:31;101568.31;;;2.71;90.23
61757;BME280;57225;61.460;24.060;2023-04-08T05:16:15;101572.19;;;2.70;89.61
61757;BME280;57225;61.460;24.060;2023-04-08T05:19:01;101564.84;;;2.88;88.39
61757;BME280;57225;61.460;24.060;2023-04-08T05:21:45;101576.38;;;2.67;89.67
61757;BME280;57225;61.460;24.060;2023-04-08T05:24:30;101569.88;;;2.63;89.97
61757;BME280;57225;61.460;24.060;2023-04-08T05:27:14;101562.69;;;2.84;87.86
61757;BME280;57225;61.460;24.060;2023-04-08T05:30:10;101580.59;;;3.35;85.72
61757;BME280;57225;61.460;24.060;2023-04-08T05:32:55;101575.13;;;3.44;84.20
61757;BME280;57225;61.460;24.060;2023-04-08T05:35:40;101583.13;;;3.54;83.70
61757;BME280;57225;61.460;24.060;2023-04-08T05:38:24;101569.81;;;3.56;83.38
61757;BME280;57225;61.460;24.060;2023-04-08T05:41:09;101579.25;;;3.72;83.49
61757;BME280;57225;61.460;24.060;2023-04-08T05:43:53;101582.00;;;3.81;82.06
61757;BME280;57225;61.460;24.060;2023-04-08T05:46:38;101576.56;;;3.98;80.94
61757;BME280;57225;61.460;24.060;2023-04-08T05:49:23;101580.28;;;4.02;79.87
61757;BME280;57225;61.460;24.060;2023-04-08T05:52:08;101584.63;;;3.94;80.30
61757;BME280;57225;61.460;24.060;2023-04-08T05:54:52;101593.00;;;3.63;81.89
61757;BME280;57225;61.460;24.060;2023-04-08T05:57:37;101585.59;;;3.81;81.96
61757;BME280;57225;61.460;24.060;2023-04-08T06:00:21;101588.47;;;3.68;81.65
61757;BME280;57225;61.460;24.060;2023-04-08T06:03:06;101568.31;;;3.41;81.82
61757;BME280;57225;61.460;24.060;2023-04-08T06:05:50;101589.34;;;3.37;83.05
61757;BME280;57225;61.460;24.060;2023-04-08T06:08:35;101587.81;;;3.53;82.61
61757;BME280;57225;61.460;24.060;2023-04-08T06:11:19;101600.91;;;3.48;83.34
61757;BME280;57225;61.460;24.060;2023-04-08T06:14:04;101589.28;;;3.59;82.18
61757;BME280;57225;61.460;24.060;2023-04-08T06:16:53;101590.28;;;3.81;80.73
61757;BME280;57225;61.460;24.060;2023-04-08T06:19:40;101603.41;;;3.67;80.76
61757;BME280;57225;61.460;24.060;2023-04-08T06:22:24;101599.38;;;3.73;79.95
61757;BME280;57225;61.460;24.060;2023-04-08T06:25:09;101601.84;;;4.00;79.55
61757;BME280;57225;61.460;24.060;2023-04-08T06:27:53;101601.16;;;3.86;79.93
61757;BME280;57225;61.460;24.060;2023-04-08T06:30:38;101597.16;;;4.09;78.15
61757;BME280;57225;61.460;24.060;2023-04-08T06:33:22;101602.84;;;4.21;78.12
61757;BME280;57225;61.460;24.060;2023-04-08T06:36:07;101607.56;;;4.21;76.83
61757;BME280;57225;61.460;24.060;2023-04-08T06:56:33;101598.78;;;5.25;70.31
61757;BME280;57225;61.460;24.060;2023-04-08T06:59:18;101595.25;;;5.16;69.36
61757;BME280;57225;61.460;24.060;2023-04-08T07:02:02;101608.50;;;5.32;68.85
61757;BME280;57225;61.460;24.060;2023-04-08T07:04:48;101603.16;;;5.64;67.72
61757;BME280;57225;61.460;24.060;2023-04-08T07:07:32;101606.31;;;5.84;66.41
61757;BME280;57225;61.460;24.060;2023-04-08T07:10:17;101606.03;;;6.06;65.81
61757;BME280;57225;61.460;24.060;2023-04-08T07:13:01;101601.44;;;5.81;64.45
61757;BME280;57225;61.460;24.060;2023-04-08T07:15:46;101611.56;;;6.06;65.50
61757;BME280;57225;61.460;24.060;2023-04-08T07:18:30;101606.84;;;6.07;63.58
61757;BME280;57225;61.460;24.060;2023-04-08T07:21:15;101605.44;;;6.00;63.87
61757;BME280;57225;61.460;24.060;2023-04-08T07:24:00;101612.50;;;6.10;61.85
61757;BME280;57225;61.460;24.060;2023-04-08T07:26:44;101617.25;;;6.30;60.21
61757;BME280;57225;61.460;24.060;2023-04-08T07:29:29;101608.00;;;6.47;60.97
61757;BME280;57225;61.460;24.060;2023-04-08T07:32:13;101613.81;;;6.87;59.50
61757;BME280;57225;61.460;24.060;2023-04-08T07:34:58;101617.97;;;6.60;58.10
61757;BME280;57225;61.460;24.060;2023-04-08T07:37:43;101604.28;;;6.43;57.71
61757;BME280;57225;61.460;24.060;2023-04-08T07:40:27;101605.63;;;6.37;56.86
61757;BME280;57225;61.460;24.060;2023-04-08T07:43:12;101618.03;;;6.52;55.45
61757;BME280;57225;61.460;24.060;2023-04-08T07:46:00;101609.00;;;6.63;55.87
61757;BME280;57225;61.460;24.060;2023-04-08T07:48:48;101609.53;;;6.90;55.99
61757;BME280;57225;61.460;24.060;2023-04-08T07:51:32;101608.91;;;7.05;55.08
61757;BME280;57225;61.460;24.060;2023-04-08T07:54:17;101616.94;;;6.85;54.87
61757;BME280;57225;61.460;24.060;2023-04-08T07:57:01;101617.34;;;6.75;55.30
61757;BME280;57225;61.460;24.060;2023-04-08T07:59:46;101614.00;;;6.70;54.94
61757;BME280;57225;61.460;24.060;2023-04-08T08:02:30;101613.06;;;6.78;53.71
61757;BME280;57225;61.460;24.060;2023-04-08T08:05:17;101606.81;;;6.69;52.87
61757;BME280;57225;61.460;24.060;2023-04-08T08:08:01;101609.41;;;6.53;53.84
61757;BME280;57225;61.460;24.060;2023-04-08T08:10:46;101603.50;;;6.75;52.38
61757;BME280;57225;61.460;24.060;2023-04-08T08:13:30;101605.72;;;6.82;53.01
61757;BME280;57225;61.460;24.060;2023-04-08T08:16:15;101604.94;;;6.94;53.07
61757;BME280;57225;61.460;24.060;2023-04-08T08:18:59;101607.59;;;7.02;52.06
61757;BME280;57225;61.460;24.060;2023-04-08T08:21:44;101600.34;;;7.10;51.72
61757;BME280;57225;61.460;24.060;2023-04-08T08:24:29;101597.69;;;7.01;51.61
61757;BME280;57225;61.460;24.060;2023-04-08T08:27:32;101601.19;;;7.35;52.10
61757;BME280;57225;61.460;24.060;2023-04-08T08:30:17;101594.75;;;7.43;52.07
61757;BME280;57225;61.460;24.060;2023-04-08T08:33:04;101597.97;;;7.33;49.20
61757;BME280;57225;61.460;24.060;2023-04-08T08:35:48;101599.84;;;6.96;50.08
61757;BME280;57225;61.460;24.060;2023-04-08T08:38:33;101602.91;;;7.15;50.19
61757;BME280;57225;61.460;24.060;2023-04-08T08:41:17;101589.50;;;7.17;50.04
61757;BME280;57225;61.460;24.060;2023-04-08T08:44:04;101596.22;;;7.16;51.17
61757;BME280;57225;61.460;24.060;2023-04-08T08:46:49;101595.31;;;7.36;51.38
61757;BME280;57225;61.460;24.060;2023-04-08T08:49:34;101590.47;;;7.33;50.38
61757;BME280;57225;61.460;24.060;2023-04-08T08:52:18;101592.69;;;7.40;50.43
61757;BME280;57225;61.460;24.060;2023-04-08T08:55:03;101591.75;;;7.60;50.78
61757;BME280;57225;61.460;24.060;2023-04-08T08:57:50;101589.56;;;7.78;50.76
61757;BME280;57225;61.460;24.060;2023-04-08T09:00:37;101585.38;;;7.72;49.78
61757;BME280;57225;61.460;24.060;2023-04-08T09:03:26;101592.44;;;7.57;50.38
61757;BME280;57225;61.460;24.060;2023-04-08T09:06:11;101585.94;;;8.01;48.74
61757;BME280;57225;61.460;24.060;2023-04-08T09:08:55;101580.44;;;7.77;49.76
61757;BME280;57225;61.460;24.060;2023-04-08T09:11:45;101582.53;;;8.20;48.48
61757;BME280;57225;61.460;24.060;2023-04-08T09:14:31;101580.94;;;8.07;48.73
61757;BME280;57225;61.460;24.060;2023-04-08T09:17:30;101578.75;;;8.53;49.49
61757;BME280;57225;61.460;24.060;2023-04-08T09:20:16;101575.72;;;8.05;48.42
61757;BME280;57225;61.460;24.060;2023-04-08T09:23:01;101570.22;;;8.45;47.05
61757;BME280;57225;61.460;24.060;2023-04-08T09:25:45;101576.19;;;9.03;47.93
61757;BME280;57225;61.460;24.060;2023-04-08T09:28:30;101586.31;;;8.68;47.22
61757;BME280;57225;61.460;24.060;2023-04-08T09:31:21;101575.69;;;8.85;48.31
61757;BME280;57225;61.460;24.060;2023-04-08T09:34:13;101568.94;;;9.14;44.59
61757;BME280;57225;61.460;24.060;2023-04-08T09:36:59;101577.97;;;9.11;45.05
61757;BME280;57225;61.460;24.060;2023-04-08T09:39:44;101565.69;;;8.97;45.64
61757;BME280;57225;61.460;24.060;2023-04-08T09:42:28;101565.78;;;9.32;45.01
61757;BME280;57225;61.460;24.060;2023-04-08T09:45:15;101575.66;;;9.13;46.28
61757;BME280;57225;61.460;24.060;2023-04-08T09:48:17;101566.91;;;8.56;47.12
61757;BME280;57225;61.460;24.060;2023-04-08T09:51:07;101565.50;;;8.62;47.58
61757;BME280;57225;61.460;24.060;2023-04-08T09:53:58;101572.78;;;8.38;48.80
61757;BME280;57225;61.460;24.060;2023-04-08T09:57:00;101570.72;;;8.23;47.85
61757;BME280;57225;61.460;24.060;2023-04-08T09:59:51;101566.66;;;7.68;48.32
61757;BME280;57225;61.460;24.060;2023-04-08T10:05:32;101571.03;;;7.94;48.51
61757;BME280;57225;61.460;24.060;2023-04-08T10:08:19;101566.13;;;8.03;47.64
61757;BME280;57225;61.460;24.060;2023-04-08T10:11:04;101573.56;;;7.87;46.88
61757;BME280;57225;61.460;24.060;2023-04-08T10:13:49;101563.50;;;7.94;44.90
61757;BME280;57225;61.460;24.060;2023-04-08T10:16:34;101564.78;;;7.85;44.83
61757;BME280;57225;61.460;24.060;2023-04-08T10:19:38;101560.53;;;8.27;46.04
61757;BME280;57225;61.460;24.060;2023-04-08T10:30:55;101543.47;;;8.69;46.54
61757;BME280;57225;61.460;24.060;2023-04-08T10:33:40;101546.09;;;8.50;44.73
61757;BME280;57225;61.460;24.060;2023-04-08T10:36:24;101536.69;;;8.82;45.11
61757;BME280;57225;61.460;24.060;2023-04-08T10:39:09;101538.13;;;8.48;45.55
61757;BME280;57225;61.460;24.060;2023-04-08T10:41:53;101532.88;;;8.59;46.96
61757;BME280;57225;61.460;24.060;2023-04-08T10:44:43;101529.69;;;8.88;43.76
61757;BME280;57225;61.460;24.060;2023-04-08T10:47:29;101523.44;;;9.22;45.47
61757;BME280;57225;61.460;24.060;2023-04-08T10:50:15;101532.56;;;8.92;43.69
61757;BME280;57225;61.460;24.060;2023-04-08T10:53:00;101517.94;;;9.26;43.54
61757;BME280;57225;61.460;24.060;2023-04-08T10:55:45;101524.84;;;9.48;44.25
61757;BME280;57225;61.460;24.060;2023-04-08T10:58:30;101523.06;;;10.09;46.20
61757;BME280;57225;61.460;24.060;2023-04-08T11:01:14;101518.88;;;10.58;46.48
61757;BME280;57225;61.460;24.060;2023-04-08T11:03:58;101507.66;;;10.73;43.77
61757;BME280;57225;61.460;24.060;2023-04-08T11:06:44;101521.97;;;10.95;42.57
61757;BME280;57225;61.460;24.060;2023-04-08T11:09:29;101524.56;;;10.42;40.13
61757;BME280;57225;61.460;24.060;2023-04-08T11:12:15;101517.97;;;9.96;40.17
61757;BME280;57225;61.460;24.060;2023-04-08T11:15:03;101514.75;;;10.29;38.00
61757;BME280;57225;61.460;24.060;2023-04-08T11:17:48;101510.47;;;10.54;38.89
61757;BME280;57225;61.460;24.060;2023-04-08T11:20:33;101510.59;;;10.61;37.53
61757;BME280;57225;61.460;24.060;2023-04-08T11:23:20;101511.28;;;11.00;39.99
61757;BME280;57225;61.460;24.060;2023-04-08T11:26:05;101513.75;;;10.60;41.90
61757;BME280;57225;61.460;24.060;2023-04-08T11:28:50;101512.75;;;10.48;42.33
61757;BME280;57225;61.460;24.060;2023-04-08T11:31:35;101507.81;;;11.07;40.99
61757;BME280;57225;61.460;24.060;2023-04-08T11:34:23;101507.88;;;10.87;41.63
61757;BME280;57225;61.460;24.060;2023-04-08T11:37:08;101496.81;;;10.68;40.88
61757;BME280;57225;61.460;24.060;2023-04-08T11:39:54;101504.81;;;10.51;42.46
61757;BME280;57225;61.460;24.060;2023-04-08T11:42:40;101502.28;;;10.42;41.63
61757;BME280;57225;61.460;24.060;2023-04-08T11:45:24;101501.97;;;10.70;43.78
61757;BME280;57225;61.460;24.060;2023-04-08T11:48:14;101509.16;;;10.48;41.46
61757;BME280;57225;61.460;24.060;2023-04-08T11:51:06;101507.38;;;10.59;40.21
61757;BME280;57225;61.460;24.060;2023-04-08T11:53:53;101503.31;;;11.48;41.37
61757;BME280;57225;61.460;24.060;2023-04-08T11:56:45;101499.34;;;11.00;39.93
61757;BME280;57225;61.460;24.060;2023-04-08T11:59:32;101502.41;;;10.49;40.13
61757;BME280;57225;61.460;24.060;2023-04-08T12:02:16;101503.56;;;10.09;40.07
61757;BME280;57225;61.460;24.060;2023-04-08T12:05:01;101493.00;;;10.38;41.44
61757;BME280;57225;61.460;24.060;2023-04-08T12:07:46;101491.38;;;10.56;39.91
61757;BME280;57225;61.460;24.060;2023-04-08T12:10:31;101485.50;;;11.29;42.58
61757;BME280;57225;61.460;24.060;2023-04-08T12:13:16;101481.78;;;12.01;38.60
61757;BME280;57225;61.460;24.060;2023-04-08T12:16:00;101491.97;;;10.88;40.25
61757;BME280;57225;61.460;24.060;2023-04-08T12:18:45;101491.13;;;10.42;38.74
61757;BME280;57225;61.460;24.060;2023-04-08T12:21:30;101486.03;;;11.12;40.32
61757;BME280;57225;61.460;24.060;2023-04-08T12:24:15;101483.03;;;11.24;37.65
61757;BME280;57225;61.460;24.060;2023-04-08T12:27:28;101481.56;;;10.85;38.06
61757;BME280;57225;61.460;24.060;2023-04-08T12:30:16;101480.69;;;10.39;38.79
61757;BME280;57225;61.460;24.060;2023-04-08T12:33:01;101489.19;;;10.46;37.23
61757;BME280;57225;61.460;24.060;2023-04-08T12:35:45;101476.38;;;10.22;37.29
61757;BME280;57225;61.460;24.060;2023-04-08T12:38:30;101477.34;;;10.30;37.87
61757;BME280;57225;61.460;24.060;2023-04-08T12:41:15;101476.06;;;10.69;38.00
61757;BME280;57225;61.460;24.060;2023-04-08T12:44:00;101468.47;;;10.66;38.88
61757;BME280;57225;61.460;24.060;2023-04-08T12:46:44;101472.34;;;10.39;38.89
61757;BME280;57225;61.460;24.060;2023-04-08T12:49:29;101461.72;;;10.25;37.67
61757;BME280;57225;61.460;24.060;2023-04-08T12:52:13;101463.09;;;10.35;39.95
61757;BME280;57225;61.460;24.060;2023-04-08T12:54:58;101466.91;;;10.69;38.74
61757;BME280;57225;61.460;24.060;2023-04-08T12:57:42;101459.50;;;11.52;38.77
61757;BME280;57225;61.460;24.060;2023-04-08T13:00:27;101462.22;;;12.01;39.43
61757;BME280;57225;61.460;24.060;2023-04-08T13:03:12;101458.09;;;11.65;37.35
61757;BME280;57225;61.460;24.060;2023-04-08T13:05:58;101461.25;;;11.63;36.72
61757;BME280;57225;61.460;24.060;2023-04-08T13:08:43;101458.91;;;11.65;38.12
61757;BME280;57225;61.460;24.060;2023-04-08T13:11:28;101458.31;;;11.53;37.16
61757;BME280;57225;61.460;24.060;2023-04-08T13:14:12;101455.16;;;11.54;38.84
61757;BME280;57225;61.460;24.060;2023-04-08T13:16:57;101458.06;;;11.61;39.58
61757;BME280;57225;61.460;24.060;2023-04-08T13:19:41;101452.28;;;11.74;36.06
61757;BME280;57225;61.460;24.060;2023-04-08T13:22:26;101448.31;;;12.08;37.76
61757;BME280;57225;61.460;24.060;2023-04-08T13:25:10;101433.94;;;12.06;37.15
61757;BME280;57225;61.460;24.060;2023-04-08T13:27:56;101452.06;;;12.19;36.28
61757;BME280;57225;61.460;24.060;2023-04-08T13:30:41;101440.84;;;11.07;36.52
61757;BME280;57225;61.460;24.060;2023-04-08T13:33:25;101447.22;;;10.81;36.64
61757;BME280;57225;61.460;24.060;2023-04-08T13:36:10;101422.09;;;10.35;38.11
61757;BME280;57225;61.460;24.060;2023-04-08T13:38:54;101443.59;;;10.58;37.10
61757;BME280;57225;61.460;24.060;2023-04-08T13:41:39;101427.31;;;10.82;36.26
61757;BME280;57225;61.460;24.060;2023-04-08T13:44:23;101432.97;;;10.86;35.27
61757;BME280;57225;61.460;24.060;2023-04-08T13:47:08;101429.16;;;10.98;36.29
61757;BME280;57225;61.460;24.060;2023-04-08T13:49:52;101436.56;;;11.13;36.64
61757;BME280;57225;61.460;24.060;2023-04-08T13:52:37;101426.91;;;11.07;35.91
61757;BME280;57225;61.460;24.060;2023-04-08T13:55:21;101423.34;;;10.83;35.51
61757;BME280;57225;61.460;24.060;2023-04-08T13:58:06;101426.00;;;10.76;37.14
61757;BME280;57225;61.460;24.060;2023-04-08T14:00:50;101442.50;;;10.62;39.25
61757;BME280;57225;61.460;24.060;2023-04-08T14:03:35;101428.09;;;10.37;37.81
61757;BME280;57225;61.460;24.060;2023-04-08T14:06:19;101425.63;;;9.94;38.25
61757;BME280;57225;61.460;24.060;2023-04-08T14:09:04;101428.03;;;10.15;38.91
61757;BME280;57225;61.460;24.060;2023-04-08T14:11:48;101424.63;;;10.21;38.59
61757;BME280;57225;61.460;24.060;2023-04-08T14:14:33;101422.53;;;10.37;39.11
61757;BME280;57225;61.460;24.060;2023-04-08T14:17:17;101424.44;;;10.14;37.44
61757;BME280;57225;61.460;24.060;2023-04-08T14:20:02;101417.91;;;10.06;40.01
61757;BME280;57225;61.460;24.060;2023-04-08T14:22:48;101418.06;;;10.14;38.11
61757;BME280;57225;61.460;24.060;2023-04-08T14:25:33;101416.44;;;10.13;38.48
61757;BME280;57225;61.460;24.060;2023-04-08T14:28:18;101419.41;;;10.00;37.70
61757;BME280;57225;61.460;24.060;2023-04-08T14:31:03;101415.44;;;10.01;37.49
61757;BME280;57225;61.460;24.060;2023-04-08T14:33:47;101411.44;;;9.99;36.81
61757;BME280;57225;61.460;24.060;2023-04-08T14:36:32;101411.44;;;9.99;37.37
61757;BME280;57225;61.460;24.060;2023-04-08T14:39:16;101405.06;;;9.98;36.91
61757;BME280;57225;61.460;24.060;2023-04-08T14:42:01;101408.09;;;9.93;36.07
61757;BME280;57225;61.460;24.060;2023-04-08T14:44:46;101407.59;;;9.88;36.69
61757;BME280;57225;61.460;24.060;2023-04-08T14:47:30;101409.97;;;10.05;37.38